Terminal Aerodrome Forecast
Issued by NWS Charleston, WV

Current Version | Previous Version | Graphics & Text | Print | Product List | Glossary On
Versions: 1 2 3 4 5 6 7 8 9 10 11 12 13 14 15 16 17 18 19 20 21 22 23 24
000
FTUS41 KRLX 262000 AAA
TAFEKN
TAF AMD
KEKN 262005Z 2620/2718 32014G28KT P6SM BKN035
     FM262030 32012G24KT 5SM RA BR BKN015
     FM262130 31010G22KT 3SM RA BR BKN010
     FM262200 31008G18KT P6SM BKN010
     FM270000 31004KT 4SM -RA BR OVC015
     FM270400 31004KT 4SM -RA BR OVC010
     FM270800 31004KT P6SM OVC010=

USA.gov is the U.S. government's official web portal to all federal, state and local government web resources and services.